sensor_id;sensor_type;location;lat;lon;timestamp;P1;durP1;ratioP1;P2;durP2;ratioP2
4873;SDS011;2451;49.970;9.068;2022-08-19T00:01:20;18.35;;;16.33;;
4873;SDS011;2451;49.970;9.068;2022-08-19T00:03:46;17.35;;;15.55;;
4873;SDS011;2451;49.970;9.068;2022-08-19T00:06:12;18.67;;;16.50;;
4873;SDS011;2451;49.970;9.068;2022-08-19T00:08:38;17.85;;;15.73;;
4873;SDS011;2451;49.970;9.068;2022-08-19T00:11:04;17.98;;;16.02;;
4873;SDS011;2451;49.970;9.068;2022-08-19T00:13:30;19.00;;;16.17;;
4873;SDS011;2451;49.970;9.068;2022-08-19T00:15:56;18.30;;;15.73;;
4873;SDS011;2451;49.970;9.068;2022-08-19T00:18:23;17.95;;;16.05;;
4873;SDS011;2451;49.970;9.068;2022-08-19T00:20:49;19.02;;;17.02;;
4873;SDS011;2451;49.970;9.068;2022-08-19T00:23:14;18.58;;;16.02;;
4873;SDS011;2451;49.970;9.068;2022-08-19T00:25:40;19.63;;;16.90;;
4873;SDS011;2451;49.970;9.068;2022-08-19T00:28:06;18.83;;;16.00;;
4873;SDS011;2451;49.970;9.068;2022-08-19T00:30:32;17.80;;;15.93;;
4873;SDS011;2451;49.970;9.068;2022-08-19T00:32:58;18.48;;;16.35;;
4873;SDS011;2451;49.970;9.068;2022-08-19T00:35:24;19.05;;;16.65;;
4873;SDS011;2451;49.970;9.068;2022-08-19T00:37:51;20.80;;;16.35;;
4873;SDS011;2451;49.970;9.068;2022-08-19T00:40:17;19.85;;;16.83;;
4873;SDS011;2451;49.970;9.068;2022-08-19T00:42:44;19.50;;;17.35;;
4873;SDS011;2451;49.970;9.068;2022-08-19T00:45:15;21.20;;;17.15;;
4873;SDS011;2451;49.970;9.068;2022-08-19T00:47:45;19.65;;;16.98;;
4873;SDS011;2451;49.970;9.068;2022-08-19T00:50:11;20.13;;;16.98;;
4873;SDS011;2451;49.970;9.068;2022-08-19T00:52:40;19.23;;;16.60;;
4873;SDS011;2451;49.970;9.068;2022-08-19T00:55:11;21.08;;;18.10;;
4873;SDS011;2451;49.970;9.068;2022-08-19T00:57:42;20.25;;;17.25;;
4873;SDS011;2451;49.970;9.068;2022-08-19T01:00:13;19.98;;;17.38;;
4873;SDS011;2451;49.970;9.068;2022-08-19T01:02:41;21.42;;;17.02;;
4873;SDS011;2451;49.970;9.068;2022-08-19T01:05:09;21.80;;;18.55;;
4873;SDS011;2451;49.970;9.068;2022-08-19T01:07:38;21.60;;;18.17;;
4873;SDS011;2451;49.970;9.068;2022-08-19T01:10:06;21.98;;;18.00;;
4873;SDS011;2451;49.970;9.068;2022-08-19T01:12:35;20.60;;;18.40;;
4873;SDS011;2451;49.970;9.068;2022-08-19T01:15:01;20.73;;;17.80;;
4873;SDS011;2451;49.970;9.068;2022-08-19T01:17:27;22.77;;;18.05;;
4873;SDS011;2451;49.970;9.068;2022-08-19T01:19:53;20.77;;;18.42;;
4873;SDS011;2451;49.970;9.068;2022-08-19T01:22:30;24.00;;;18.83;;
4873;SDS011;2451;49.970;9.068;2022-08-19T01:25:00;22.75;;;17.77;;
4873;SDS011;2451;49.970;9.068;2022-08-19T01:27:26;21.05;;;18.40;;
4873;SDS011;2451;49.970;9.068;2022-08-19T01:29:52;22.83;;;18.63;;
4873;SDS011;2451;49.970;9.068;2022-08-19T01:32:17;24.85;;;18.33;;
4873;SDS011;2451;49.970;9.068;2022-08-19T01:34:44;23.33;;;19.23;;
4873;SDS011;2451;49.970;9.068;2022-08-19T01:37:12;23.50;;;17.85;;
4873;SDS011;2451;49.970;9.068;2022-08-19T01:39:39;23.27;;;18.25;;
4873;SDS011;2451;49.970;9.068;2022-08-19T01:42:08;21.33;;;17.38;;
4873;SDS011;2451;49.970;9.068;2022-08-19T01:44:36;21.67;;;17.75;;
4873;SDS011;2451;49.970;9.068;2022-08-19T01:47:03;21.42;;;17.92;;
4873;SDS011;2451;49.970;9.068;2022-08-19T01:49:28;25.65;;;18.95;;
4873;SDS011;2451;49.970;9.068;2022-08-19T01:51:54;21.73;;;17.98;;
4873;SDS011;2451;49.970;9.068;2022-08-19T01:54:21;19.67;;;16.90;;
4873;SDS011;2451;49.970;9.068;2022-08-19T01:56:48;20.98;;;17.38;;
4873;SDS011;2451;49.970;9.068;2022-08-19T01:59:16;23.27;;;17.10;;
4873;SDS011;2451;49.970;9.068;2022-08-19T02:01:44;20.67;;;16.97;;
4873;SDS011;2451;49.970;9.068;2022-08-19T02:04:10;19.98;;;16.63;;
4873;SDS011;2451;49.970;9.068;2022-08-19T02:06:36;19.42;;;16.25;;
4873;SDS011;2451;49.970;9.068;2022-08-19T02:09:03;21.73;;;16.95;;
4873;SDS011;2451;49.970;9.068;2022-08-19T02:11:31;19.38;;;15.90;;
4873;SDS011;2451;49.970;9.068;2022-08-19T02:13:59;18.92;;;15.48;;
4873;SDS011;2451;49.970;9.068;2022-08-19T02:16:27;19.23;;;16.17;;
4873;SDS011;2451;49.970;9.068;2022-08-19T02:18:52;17.80;;;15.80;;
4873;SDS011;2451;49.970;9.068;2022-08-19T02:21:19;20.15;;;16.40;;
4873;SDS011;2451;49.970;9.068;2022-08-19T02:23:45;20.65;;;16.27;;
4873;SDS011;2451;49.970;9.068;2022-08-19T02:26:11;19.17;;;16.27;;
4873;SDS011;2451;49.970;9.068;2022-08-19T02:28:37;18.25;;;16.33;;
4873;SDS011;2451;49.970;9.068;2022-08-19T02:31:03;18.92;;;15.63;;
4873;SDS011;2451;49.970;9.068;2022-08-19T02:33:34;18.58;;;15.48;;
4873;SDS011;2451;49.970;9.068;2022-08-19T02:35:59;17.05;;;15.20;;
4873;SDS011;2451;49.970;9.068;2022-08-19T02:38:29;19.45;;;16.77;;
4873;SDS011;2451;49.970;9.068;2022-08-19T02:40:56;17.80;;;15.80;;
4873;SDS011;2451;49.970;9.068;2022-08-19T02:43:23;19.70;;;16.08;;
4873;SDS011;2451;49.970;9.068;2022-08-19T02:45:50;17.42;;;15.00;;
4873;SDS011;2451;49.970;9.068;2022-08-19T02:48:17;19.90;;;16.65;;
4873;SDS011;2451;49.970;9.068;2022-08-19T02:50:44;19.10;;;16.27;;
4873;SDS011;2451;49.970;9.068;2022-08-19T02:53:10;18.02;;;16.02;;
4873;SDS011;2451;49.970;9.068;2022-08-19T02:55:42;19.45;;;15.55;;
4873;SDS011;2451;49.970;9.068;2022-08-19T02:58:10;19.08;;;16.48;;
4873;SDS011;2451;49.970;9.068;2022-08-19T03:00:40;17.58;;;15.65;;
4873;SDS011;2451;49.970;9.068;2022-08-19T03:03:09;20.52;;;16.20;;
4873;SDS011;2451;49.970;9.068;2022-08-19T03:05:35;18.60;;;15.50;;
4873;SDS011;2451;49.970;9.068;2022-08-19T03:08:01;17.95;;;16.05;;
4873;SDS011;2451;49.970;9.068;2022-08-19T03:10:28;17.50;;;15.63;;
4873;SDS011;2451;49.970;9.068;2022-08-19T03:12:53;18.52;;;16.35;;
4873;SDS011;2451;49.970;9.068;2022-08-19T03:15:19;18.50;;;16.33;;
4873;SDS011;2451;49.970;9.068;2022-08-19T03:17:45;19.98;;;16.25;;
4873;SDS011;2451;49.970;9.068;2022-08-19T03:20:10;18.38;;;16.13;;
4873;SDS011;2451;49.970;9.068;2022-08-19T03:22:36;18.90;;;16.67;;
4873;SDS011;2451;49.970;9.068;2022-08-19T03:25:02;17.92;;;15.52;;
4873;SDS011;2451;49.970;9.068;2022-08-19T03:27:28;18.55;;;15.82;;
4873;SDS011;2451;49.970;9.068;2022-08-19T03:29:54;18.33;;;15.98;;
4873;SDS011;2451;49.970;9.068;2022-08-19T03:32:20;18.75;;;16.50;;
4873;SDS011;2451;49.970;9.068;2022-08-19T03:34:46;20.13;;;16.95;;
4873;SDS011;2451;49.970;9.068;2022-08-19T03:37:12;18.77;;;15.80;;
4873;SDS011;2451;49.970;9.068;2022-08-19T03:39:38;20.52;;;16.73;;
4873;SDS011;2451;49.970;9.068;2022-08-19T03:42:05;18.33;;;15.93;;
4873;SDS011;2451;49.970;9.068;2022-08-19T03:44:30;19.83;;;16.08;;
4873;SDS011;2451;49.970;9.068;2022-08-19T03:47:02;20.73;;;17.33;;
4873;SDS011;2451;49.970;9.068;2022-08-19T03:49:29;20.17;;;16.67;;
4873;SDS011;2451;49.970;9.068;2022-08-19T03:51:57;22.27;;;16.55;;
4873;SDS011;2451;49.970;9.068;2022-08-19T03:54:26;23.02;;;16.98;;
4873;SDS011;2451;49.970;9.068;2022-08-19T03:56:53;21.63;;;16.88;;
4873;SDS011;2451;49.970;9.068;2022-08-19T03:59:21;19.10;;;16.05;;
4873;SDS011;2451;49.970;9.068;2022-08-19T04:01:50;19.17;;;15.48;;
4873;SDS011;2451;49.970;9.068;2022-08-19T04:04:16;19.58;;;16.35;;
4873;SDS011;2451;49.970;9.068;2022-08-19T04:06:42;20.15;;;16.58;;
4873;SDS011;2451;49.970;9.068;2022-08-19T04:09:09;18.10;;;15.52;;
4873;SDS011;2451;49.970;9.068;2022-08-19T04:11:37;18.88;;;16.05;;
4873;SDS011;2451;49.970;9.068;2022-08-19T04:14:08;21.00;;;16.95;;
4873;SDS011;2451;49.970;9.068;2022-08-19T04:16:36;18.23;;;16.10;;
4873;SDS011;2451;49.970;9.068;2022-08-19T04:19:03;19.15;;;16.02;;
4873;SDS011;2451;49.970;9.068;2022-08-19T04:21:30;18.23;;;14.80;;
4873;SDS011;2451;49.970;9.068;2022-08-19T04:23:56;19.40;;;16.17;;
4873;SDS011;2451;49.970;9.068;2022-08-19T04:26:23;17.77;;;15.68;;
4873;SDS011;2451;49.970;9.068;2022-08-19T04:28:51;19.60;;;14.95;;
4873;SDS011;2451;49.970;9.068;2022-08-19T04:31:19;20.13;;;15.68;;
4873;SDS011;2451;49.970;9.068;2022-08-19T04:33:50;19.60;;;15.55;;
4873;SDS011;2451;49.970;9.068;2022-08-19T04:36:22;16.63;;;14.68;;
4873;SDS011;2451;49.970;9.068;2022-08-19T04:38:58;16.58;;;14.70;;
4873;SDS011;2451;49.970;9.068;2022-08-19T04:41:25;19.23;;;15.10;;
4873;SDS011;2451;49.970;9.068;2022-08-19T04:44:10;17.92;;;14.60;;
4873;SDS011;2451;49.970;9.068;2022-08-19T04:46:37;17.05;;;14.10;;
4873;SDS011;2451;49.970;9.068;2022-08-19T04:49:03;18.75;;;14.15;;
4873;SDS011;2451;49.970;9.068;2022-08-19T04:51:31;17.23;;;13.93;;
4873;SDS011;2451;49.970;9.068;2022-08-19T04:53:58;16.65;;;13.95;;
4873;SDS011;2451;49.970;9.068;2022-08-19T04:56:25;19.95;;;14.95;;
4873;SDS011;2451;49.970;9.068;2022-08-19T04:58:52;17.20;;;13.95;;
4873;SDS011;2451;49.970;9.068;2022-08-19T05:01:27;15.98;;;13.82;;
4873;SDS011;2451;49.970;9.068;2022-08-19T05:03:54;17.58;;;13.95;;
4873;SDS011;2451;49.970;9.068;2022-08-19T05:06:21;16.95;;;14.43;;
4873;SDS011;2451;49.970;9.068;2022-08-19T05:08:48;16.35;;;13.63;;
4873;SDS011;2451;49.970;9.068;2022-08-19T05:11:21;15.88;;;14.00;;
4873;SDS011;2451;49.970;9.068;2022-08-19T05:13:49;18.15;;;13.80;;
4873;SDS011;2451;49.970;9.068;2022-08-19T05:16:16;19.02;;;13.77;;
4873;SDS011;2451;49.970;9.068;2022-08-19T05:18:43;17.98;;;14.60;;
4873;SDS011;2451;49.970;9.068;2022-08-19T05:21:28;18.65;;;13.80;;
4873;SDS011;2451;49.970;9.068;2022-08-19T05:24:13;16.92;;;13.63;;
4873;SDS011;2451;49.970;9.068;2022-08-19T05:26:41;14.93;;;13.32;;
4873;SDS011;2451;49.970;9.068;2022-08-19T05:29:10;17.42;;;14.00;;
4873;SDS011;2451;49.970;9.068;2022-08-19T05:31:36;17.42;;;13.05;;
4873;SDS011;2451;49.970;9.068;2022-08-19T05:34:03;16.77;;;13.20;;
4873;SDS011;2451;49.970;9.068;2022-08-19T05:36:32;18.67;;;13.30;;
4873;SDS011;2451;49.970;9.068;2022-08-19T05:39:02;15.88;;;13.50;;
4873;SDS011;2451;49.970;9.068;2022-08-19T05:41:29;15.88;;;13.73;;
4873;SDS011;2451;49.970;9.068;2022-08-19T05:44:00;21.40;;;14.07;;
4873;SDS011;2451;49.970;9.068;2022-08-19T05:46:27;16.13;;;13.38;;
4873;SDS011;2451;49.970;9.068;2022-08-19T05:48:53;17.67;;;13.65;;
4873;SDS011;2451;49.970;9.068;2022-08-19T05:51:21;16.52;;;13.70;;
4873;SDS011;2451;49.970;9.068;2022-08-19T05:53:47;16.70;;;13.05;;
4873;SDS011;2451;49.970;9.068;2022-08-19T05:56:14;18.60;;;12.75;;
4873;SDS011;2451;49.970;9.068;2022-08-19T05:58:41;16.38;;;12.50;;
4873;SDS011;2451;49.970;9.068;2022-08-19T06:01:11;16.67;;;12.98;;
4873;SDS011;2451;49.970;9.068;2022-08-19T06:03:39;17.25;;;12.57;;
4873;SDS011;2451;49.970;9.068;2022-08-19T06:06:05;15.43;;;12.90;;
4873;SDS011;2451;49.970;9.068;2022-08-19T06:08:32;16.33;;;13.02;;
4873;SDS011;2451;49.970;9.068;2022-08-19T06:11:11;16.27;;;13.50;;
4873;SDS011;2451;49.970;9.068;2022-08-19T06:13:39;18.35;;;12.93;;
4873;SDS011;2451;49.970;9.068;2022-08-19T06:16:04;18.10;;;13.18;;
4873;SDS011;2451;49.970;9.068;2022-08-19T06:18:30;18.15;;;12.75;;
4873;SDS011;2451;49.970;9.068;2022-08-19T06:20:55;16.77;;;13.07;;
4873;SDS011;2451;49.970;9.068;2022-08-19T06:23:21;17.95;;;12.63;;
4873;SDS011;2451;49.970;9.068;2022-08-19T06:25:46;14.27;;;12.18;;
4873;SDS011;2451;49.970;9.068;2022-08-19T06:28:12;15.57;;;13.00;;
4873;SDS011;2451;49.970;9.068;2022-08-19T06:30:38;16.52;;;12.05;;
4873;SDS011;2451;49.970;9.068;2022-08-19T06:33:03;17.25;;;12.27;;
4873;SDS011;2451;49.970;9.068;2022-08-19T06:35:29;17.02;;;11.75;;
4873;SDS011;2451;49.970;9.068;2022-08-19T06:37:54;18.00;;;12.02;;
4873;SDS011;2451;49.970;9.068;2022-08-19T06:40:20;18.33;;;12.32;;
4873;SDS011;2451;49.970;9.068;2022-08-19T06:42:46;13.55;;;11.68;;
4873;SDS011;2451;49.970;9.068;2022-08-19T06:45:11;14.57;;;11.65;;
4873;SDS011;2451;49.970;9.068;2022-08-19T06:47:37;16.27;;;11.45;;
4873;SDS011;2451;49.970;9.068;2022-08-19T06:50:02;15.48;;;11.88;;
4873;SDS011;2451;49.970;9.068;2022-08-19T06:52:33;15.80;;;12.07;;
4873;SDS011;2451;49.970;9.068;2022-08-19T06:55:00;14.75;;;11.82;;
4873;SDS011;2451;49.970;9.068;2022-08-19T06:57:26;15.43;;;10.95;;
4873;SDS011;2451;49.970;9.068;2022-08-19T06:59:53;13.82;;;11.00;;
4873;SDS011;2451;49.970;9.068;2022-08-19T07:02:21;13.88;;;11.23;;
4873;SDS011;2451;49.970;9.068;2022-08-19T07:04:51;13.57;;;11.38;;
4873;SDS011;2451;49.970;9.068;2022-08-19T07:07:17;13.80;;;11.18;;
4873;SDS011;2451;49.970;9.068;2022-08-19T07:09:43;14.02;;;11.27;;
4873;SDS011;2451;49.970;9.068;2022-08-19T07:12:10;14.70;;;11.55;;
4873;SDS011;2451;49.970;9.068;2022-08-19T07:14:39;13.32;;;11.50;;
4873;SDS011;2451;49.970;9.068;2022-08-19T07:17:06;13.80;;;10.30;;
4873;SDS011;2451;49.970;9.068;2022-08-19T07:19:33;11.90;;;10.03;;
4873;SDS011;2451;49.970;9.068;2022-08-19T07:22:01;14.15;;;11.05;;
4873;SDS011;2451;49.970;9.068;2022-08-19T07:24:29;15.82;;;11.18;;
4873;SDS011;2451;49.970;9.068;2022-08-19T07:26:57;14.80;;;11.43;;
4873;SDS011;2451;49.970;9.068;2022-08-19T07:29:25;12.77;;;10.05;;
4873;SDS011;2451;49.970;9.068;2022-08-19T07:31:53;16.17;;;11.13;;
4873;SDS011;2451;49.970;9.068;2022-08-19T07:34:23;12.55;;;10.15;;
4873;SDS011;2451;49.970;9.068;2022-08-19T07:36:50;16.17;;;11.10;;
4873;SDS011;2451;49.970;9.068;2022-08-19T07:39:23;15.73;;;10.50;;
4873;SDS011;2451;49.970;9.068;2022-08-19T07:41:50;17.13;;;11.05;;
4873;SDS011;2451;49.970;9.068;2022-08-19T07:44:17;12.82;;;10.18;;
4873;SDS011;2451;49.970;9.068;2022-08-19T07:46:46;14.50;;;11.50;;
4873;SDS011;2451;49.970;9.068;2022-08-19T07:49:14;13.77;;;11.05;;
4873;SDS011;2451;49.970;9.068;2022-08-19T07:51:44;11.52;;;9.88;;
4873;SDS011;2451;49.970;9.068;2022-08-19T07:54:14;14.05;;;10.82;;
4873;SDS011;2451;49.970;9.068;2022-08-19T07:56:40;16.13;;;11.38;;
4873;SDS011;2451;49.970;9.068;2022-08-19T07:59:06;15.10;;;10.13;;
4873;SDS011;2451;49.970;9.068;2022-08-19T08:01:32;12.82;;;10.32;;
4873;SDS011;2451;49.970;9.068;2022-08-19T08:03:58;14.40;;;10.20;;
4873;SDS011;2451;49.970;9.068;2022-08-19T08:06:42;12.90;;;10.23;;
4873;SDS011;2451;49.970;9.068;2022-08-19T08:09:30;13.27;;;9.80;;
4873;SDS011;2451;49.970;9.068;2022-08-19T08:12:03;13.50;;;10.15;;
4873;SDS011;2451;49.970;9.068;2022-08-19T08:14:42;12.75;;;10.23;;
4873;SDS011;2451;49.970;9.068;2022-08-19T08:17:13;15.15;;;9.55;;
4873;SDS011;2451;49.970;9.068;2022-08-19T08:19:40;15.93;;;9.77;;
4873;SDS011;2451;49.970;9.068;2022-08-19T08:22:06;12.60;;;9.98;;
4873;SDS011;2451;49.970;9.068;2022-08-19T08:24:32;17.02;;;9.10;;
4873;SDS011;2451;49.970;9.068;2022-08-19T08:26:59;13.32;;;10.35;;
4873;SDS011;2451;49.970;9.068;2022-08-19T08:29:27;14.75;;;10.05;;
4873;SDS011;2451;49.970;9.068;2022-08-19T08:31:55;17.75;;;10.32;;
4873;SDS011;2451;49.970;9.068;2022-08-19T08:34:21;10.32;;;8.95;;
4873;SDS011;2451;49.970;9.068;2022-08-19T08:36:47;13.57;;;8.60;;
4873;SDS011;2451;49.970;9.068;2022-08-19T08:39:14;12.38;;;8.63;;
4873;SDS011;2451;49.970;9.068;2022-08-19T08:41:55;13.05;;;8.77;;
4873;SDS011;2451;49.970;9.068;2022-08-19T08:47:05;12.27;;;7.88;;
4873;SDS011;2451;49.970;9.068;2022-08-19T08:49:41;11.57;;;8.18;;
4873;SDS011;2451;49.970;9.068;2022-08-19T08:52:18;12.75;;;7.90;;
4873;SDS011;2451;49.970;9.068;2022-08-19T08:54:49;11.48;;;8.68;;
4873;SDS011;2451;49.970;9.068;2022-08-19T09:00:22;11.18;;;7.75;;
4873;SDS011;2451;49.970;9.068;2022-08-19T09:02:53;8.18;;;7.20;;
4873;SDS011;2451;49.970;9.068;2022-08-19T09:05:20;14.38;;;8.65;;
4873;SDS011;2451;49.970;9.068;2022-08-19T09:10:22;12.02;;;5.85;;
4873;SDS011;2451;49.970;9.068;2022-08-19T09:13:13;9.70;;;5.53;;
4873;SDS011;2451;49.970;9.068;2022-08-19T09:16:18;9.48;;;5.50;;
4873;SDS011;2451;49.970;9.068;2022-08-19T09:18:47;8.68;;;4.80;;
4873;SDS011;2451;49.970;9.068;2022-08-19T09:21:17;6.85;;;4.57;;
4873;SDS011;2451;49.970;9.068;2022-08-19T09:23:43;8.60;;;4.40;;
4873;SDS011;2451;49.970;9.068;2022-08-19T09:26:10;6.35;;;4.80;;
4873;SDS011;2451;49.970;9.068;2022-08-19T09:28:39;6.55;;;4.10;;
4873;SDS011;2451;49.970;9.068;2022-08-19T09:31:23;7.38;;;4.10;;
4873;SDS011;2451;49.970;9.068;2022-08-19T09:33:50;7.72;;;3.88;;
4873;SDS011;2451;49.970;9.068;2022-08-19T09:36:17;5.47;;;3.55;;
4873;SDS011;2451;49.970;9.068;2022-08-19T09:38:45;7.03;;;4.03;;
4873;SDS011;2451;49.970;9.068;2022-08-19T09:41:15;5.88;;;3.78;;
4873;SDS011;2451;49.970;9.068;2022-08-19T09:43:44;6.60;;;3.05;;
4873;SDS011;2451;49.970;9.068;2022-08-19T09:48:37;10.00;;;3.67;;
4873;SDS011;2451;49.970;9.068;2022-08-19T09:51:11;6.18;;;3.85;;
4873;SDS011;2451;49.970;9.068;2022-08-19T09:53:40;5.20;;;3.47;;
4873;SDS011;2451;49.970;9.068;2022-08-19T09:56:06;10.60;;;3.72;;
4873;SDS011;2451;49.970;9.068;2022-08-19T09:58:33;7.15;;;3.63;;
4873;SDS011;2451;49.970;9.068;2022-08-19T10:00:59;7.80;;;3.92;;
4873;SDS011;2451;49.970;9.068;2022-08-19T10:03:26;5.85;;;3.67;;
4873;SDS011;2451;49.970;9.068;2022-08-19T10:05:54;7.20;;;3.30;;
4873;SDS011;2451;49.970;9.068;2022-08-19T10:08:23;7.72;;;3.47;;
4873;SDS011;2451;49.970;9.068;2022-08-19T10:10:54;5.35;;;2.60;;
4873;SDS011;2451;49.970;9.068;2022-08-19T10:13:21;6.90;;;2.67;;
4873;SDS011;2451;49.970;9.068;2022-08-19T10:15:50;4.32;;;3.10;;
4873;SDS011;2451;49.970;9.068;2022-08-19T10:18:16;4.50;;;2.83;;
4873;SDS011;2451;49.970;9.068;2022-08-19T10:20:43;4.78;;;2.78;;
4873;SDS011;2451;49.970;9.068;2022-08-19T10:23:10;5.82;;;2.90;;
4873;SDS011;2451;49.970;9.068;2022-08-19T10:25:37;5.10;;;3.00;;
4873;SDS011;2451;49.970;9.068;2022-08-19T10:28:02;5.28;;;3.15;;
4873;SDS011;2451;49.970;9.068;2022-08-19T10:30:29;4.68;;;3.08;;
4873;SDS011;2451;49.970;9.068;2022-08-19T10:32:54;4.70;;;2.65;;
4873;SDS011;2451;49.970;9.068;2022-08-19T10:35:20;6.07;;;3.35;;
4873;SDS011;2451;49.970;9.068;2022-08-19T10:37:46;4.18;;;2.97;;
4873;SDS011;2451;49.970;9.068;2022-08-19T10:40:11;4.78;;;3.30;;
4873;SDS011;2451;49.970;9.068;2022-08-19T10:42:37;6.20;;;3.22;;
4873;SDS011;2451;49.970;9.068;2022-08-19T10:45:03;7.65;;;3.75;;
4873;SDS011;2451;49.970;9.068;2022-08-19T10:47:31;4.55;;;3.05;;
4873;SDS011;2451;49.970;9.068;2022-08-19T10:49:58;4.30;;;3.30;;
4873;SDS011;2451;49.970;9.068;2022-08-19T10:52:44;6.70;;;3.10;;
4873;SDS011;2451;49.970;9.068;2022-08-19T10:55:11;5.43;;;3.35;;
4873;SDS011;2451;49.970;9.068;2022-08-19T10:57:55;6.15;;;3.80;;
4873;SDS011;2451;49.970;9.068;2022-08-19T11:00:22;5.93;;;3.50;;
4873;SDS011;2451;49.970;9.068;2022-08-19T11:02:49;8.15;;;4.30;;
4873;SDS011;2451;49.970;9.068;2022-08-19T11:05:15;5.47;;;3.80;;
4873;SDS011;2451;49.970;9.068;2022-08-19T11:07:42;7.07;;;4.15;;
4873;SDS011;2451;49.970;9.068;2022-08-19T11:10:09;7.30;;;3.80;;
4873;SDS011;2451;49.970;9.068;2022-08-19T11:12:37;7.65;;;4.00;;
4873;SDS011;2451;49.970;9.068;2022-08-19T11:15:04;6.05;;;4.18;;
4873;SDS011;2451;49.970;9.068;2022-08-19T11:17:31;6.90;;;3.97;;
4873;SDS011;2451;49.970;9.068;2022-08-19T11:19:56;4.20;;;3.78;;
4873;SDS011;2451;49.970;9.068;2022-08-19T11:22:22;5.93;;;4.30;;
4873;SDS011;2451;49.970;9.068;2022-08-19T11:24:47;6.85;;;4.13;;
4873;SDS011;2451;49.970;9.068;2022-08-19T11:27:13;6.53;;;4.25;;
4873;SDS011;2451;49.970;9.068;2022-08-19T11:29:39;8.05;;;4.00;;
4873;SDS011;2451;49.970;9.068;2022-08-19T11:32:06;5.97;;;4.40;;
4873;SDS011;2451;49.970;9.068;2022-08-19T11:34:34;6.97;;;4.25;;
4873;SDS011;2451;49.970;9.068;2022-08-19T11:37:01;6.70;;;3.83;;
4873;SDS011;2451;49.970;9.068;2022-08-19T11:39:28;5.78;;;4.22;;
4873;SDS011;2451;49.970;9.068;2022-08-19T11:41:57;5.10;;;3.72;;
4873;SDS011;2451;49.970;9.068;2022-08-19T11:44:23;5.93;;;3.93;;
4873;SDS011;2451;49.970;9.068;2022-08-19T11:46:49;7.07;;;4.30;;
4873;SDS011;2451;49.970;9.068;2022-08-19T11:49:15;7.35;;;4.63;;
4873;SDS011;2451;49.970;9.068;2022-08-19T11:51:43;7.50;;;4.30;;
4873;SDS011;2451;49.970;9.068;2022-08-19T11:54:10;5.72;;;4.20;;
4873;SDS011;2451;49.970;9.068;2022-08-19T11:56:37;6.00;;;4.55;;
4873;SDS011;2451;49.970;9.068;2022-08-19T11:59:04;8.48;;;4.20;;
4873;SDS011;2451;49.970;9.068;2022-08-19T12:01:29;6.93;;;4.20;;
4873;SDS011;2451;49.970;9.068;2022-08-19T12:03:56;5.03;;;3.80;;
4873;SDS011;2451;49.970;9.068;2022-08-19T12:06:24;7.32;;;3.80;;
4873;SDS011;2451;49.970;9.068;2022-08-19T12:08:53;5.78;;;3.90;;
4873;SDS011;2451;49.970;9.068;2022-08-19T12:11:24;8.40;;;3.92;;
4873;SDS011;2451;49.970;9.068;2022-08-19T12:13:50;5.03;;;3.65;;
4873;SDS011;2451;49.970;9.068;2022-08-19T12:16:17;5.90;;;3.70;;
4873;SDS011;2451;49.970;9.068;2022-08-19T12:18:45;5.43;;;3.67;;
4873;SDS011;2451;49.970;9.068;2022-08-19T12:21:14;7.05;;;3.92;;
4873;SDS011;2451;49.970;9.068;2022-08-19T12:23:42;4.93;;;3.65;;
4873;SDS011;2451;49.970;9.068;2022-08-19T12:26:10;5.63;;;3.80;;
4873;SDS011;2451;49.970;9.068;2022-08-19T12:28:36;7.80;;;3.72;;
4873;SDS011;2451;49.970;9.068;2022-08-19T12:31:02;7.35;;;3.60;;
4873;SDS011;2451;49.970;9.068;2022-08-19T12:33:28;6.13;;;4.00;;
4873;SDS011;2451;49.970;9.068;2022-08-19T12:35:54;6.53;;;3.85;;
4873;SDS011;2451;49.970;9.068;2022-08-19T12:38:24;5.20;;;3.40;;
4873;SDS011;2451;49.970;9.068;2022-08-19T12:40:50;6.13;;;3.60;;
4873;SDS011;2451;49.970;9.068;2022-08-19T12:43:20;6.05;;;4.00;;
4873;SDS011;2451;49.970;9.068;2022-08-19T12:45:50;6.53;;;3.90;;
4873;SDS011;2451;49.970;9.068;2022-08-19T12:48:15;5.85;;;3.60;;
4873;SDS011;2451;49.970;9.068;2022-08-19T12:50:43;4.65;;;3.60;;
4873;SDS011;2451;49.970;9.068;2022-08-19T12:53:10;4.07;;;3.63;;
4873;SDS011;2451;49.970;9.068;2022-08-19T12:55:37;6.80;;;4.07;;
4873;SDS011;2451;49.970;9.068;2022-08-19T12:58:02;5.72;;;3.75;;
4873;SDS011;2451;49.970;9.068;2022-08-19T13:00:28;6.47;;;3.90;;
4873;SDS011;2451;49.970;9.068;2022-08-19T13:05:23;4.22;;;3.63;;
4873;SDS011;2451;49.970;9.068;2022-08-19T13:07:54;5.78;;;3.63;;
4873;SDS011;2451;49.970;9.068;2022-08-19T13:10:21;4.10;;;3.70;;
4873;SDS011;2451;49.970;9.068;2022-08-19T13:12:49;5.38;;;4.07;;
4873;SDS011;2451;49.970;9.068;2022-08-19T13:15:16;5.95;;;3.65;;
4873;SDS011;2451;49.970;9.068;2022-08-19T13:17:46;6.07;;;4.07;;
4873;SDS011;2451;49.970;9.068;2022-08-19T13:20:14;6.23;;;3.90;;
4873;SDS011;2451;49.970;9.068;2022-08-19T13:22:41;4.85;;;3.63;;
4873;SDS011;2451;49.970;9.068;2022-08-19T13:25:07;5.93;;;3.45;;
4873;SDS011;2451;49.970;9.068;2022-08-19T13:27:34;5.22;;;3.92;;
4873;SDS011;2451;49.970;9.068;2022-08-19T13:30:00;6.55;;;3.55;;
4873;SDS011;2451;49.970;9.068;2022-08-19T13:32:44;7.97;;;3.92;;
4873;SDS011;2451;49.970;9.068;2022-08-19T13:35:28;7.38;;;4.35;;
4873;SDS011;2451;49.970;9.068;2022-08-19T13:37:53;6.95;;;3.95;;
4873;SDS011;2451;49.970;9.068;2022-08-19T13:40:20;5.97;;;3.83;;
4873;SDS011;2451;49.970;9.068;2022-08-19T13:42:49;3.97;;;3.40;;
4873;SDS011;2451;49.970;9.068;2022-08-19T13:45:18;6.60;;;4.43;;
4873;SDS011;2451;49.970;9.068;2022-08-19T13:47:46;6.65;;;3.97;;
4873;SDS011;2451;49.970;9.068;2022-08-19T13:50:14;4.95;;;3.90;;
4873;SDS011;2451;49.970;9.068;2022-08-19T13:52:45;6.55;;;4.10;;
4873;SDS011;2451;49.970;9.068;2022-08-19T13:55:24;8.32;;;4.68;;
4873;SDS011;2451;49.970;9.068;2022-08-19T13:57:54;7.15;;;4.65;;
4873;SDS011;2451;49.970;9.068;2022-08-19T14:00:21;6.95;;;4.88;;
4873;SDS011;2451;49.970;9.068;2022-08-19T14:02:50;6.82;;;5.03;;
4873;SDS011;2451;49.970;9.068;2022-08-19T14:05:17;7.75;;;5.05;;
4873;SDS011;2451;49.970;9.068;2022-08-19T14:07:44;6.35;;;4.43;;
4873;SDS011;2451;49.970;9.068;2022-08-19T14:10:10;7.28;;;5.18;;
4873;SDS011;2451;49.970;9.068;2022-08-19T14:12:37;6.80;;;4.85;;
4873;SDS011;2451;49.970;9.068;2022-08-19T14:15:04;7.90;;;5.15;;
4873;SDS011;2451;49.970;9.068;2022-08-19T14:17:31;6.00;;;5.18;;
4873;SDS011;2451;49.970;9.068;2022-08-19T14:20:00;6.40;;;5.70;;
4873;SDS011;2451;49.970;9.068;2022-08-19T14:22:32;7.68;;;5.88;;
4873;SDS011;2451;49.970;9.068;2022-08-19T14:24:58;7.18;;;6.18;;
4873;SDS011;2451;49.970;9.068;2022-08-19T14:27:24;6.60;;;5.95;;
4873;SDS011;2451;49.970;9.068;2022-08-19T14:29:50;7.38;;;6.20;;
4873;SDS011;2451;49.970;9.068;2022-08-19T14:32:16;7.43;;;6.25;;
4873;SDS011;2451;49.970;9.068;2022-08-19T14:34:42;7.63;;;5.93;;
4873;SDS011;2451;49.970;9.068;2022-08-19T14:37:11;8.77;;;6.20;;
4873;SDS011;2451;49.970;9.068;2022-08-19T14:39:39;7.30;;;6.05;;
4873;SDS011;2451;49.970;9.068;2022-08-19T14:42:08;8.07;;;5.57;;
4873;SDS011;2451;49.970;9.068;2022-08-19T14:44:34;7.35;;;6.32;;
4873;SDS011;2451;49.970;9.068;2022-08-19T14:47:00;7.85;;;6.80;;
4873;SDS011;2451;49.970;9.068;2022-08-19T14:49:26;15.40;;;6.20;;
4873;SDS011;2451;49.970;9.068;2022-08-19T14:51:52;7.25;;;6.13;;
4873;SDS011;2451;49.970;9.068;2022-08-19T14:54:17;9.45;;;6.43;;
4873;SDS011;2451;49.970;9.068;2022-08-19T14:56:43;7.97;;;6.40;;
4873;SDS011;2451;49.970;9.068;2022-08-19T14:59:09;7.82;;;6.78;;
4873;SDS011;2451;49.970;9.068;2022-08-19T15:01:35;8.35;;;6.68;;
4873;SDS011;2451;49.970;9.068;2022-08-19T15:04:01;7.57;;;6.72;;
4873;SDS011;2451;49.970;9.068;2022-08-19T15:06:27;10.02;;;6.88;;
4873;SDS011;2451;49.970;9.068;2022-08-19T15:08:54;9.93;;;7.35;;
4873;SDS011;2451;49.970;9.068;2022-08-19T15:11:21;8.43;;;6.93;;
4873;SDS011;2451;49.970;9.068;2022-08-19T15:13:48;9.15;;;6.15;;
4873;SDS011;2451;49.970;9.068;2022-08-19T15:16:15;9.52;;;6.25;;
4873;SDS011;2451;49.970;9.068;2022-08-19T15:18:41;7.93;;;6.20;;